Time;durP1;ratioP1;P1;durP2;ratioP2;P2;SDS_P1;SDS_P2;PMS_P1;PMS_P2;Temp;Humidity;BMP_temperature;BMP_pressure;BME280_temperature;BME280_humidity;BME280_pressure;Samples;Min_cycle;Max_cycle;Signal;HPM_P1;HPM_P2
2021/04/17 00:01:23;;;;;;;362.90;229.02;;;;;;;;;;4990216;28;20041;-75
2021/04/17 00:03:49;;;;;;;360.25;225.93;;;;;;;;;;5003748;28;20057;-75
2021/04/17 00:06:15;;;;;;;361.02;222.52;;;;;;;;;;4993525;28;20066;-75
2021/04/17 00:08:41;;;;;;;359.23;225.68;;;;;;;;;;5008689;28;20033;-75
2021/04/17 00:11:07;;;;;;;353.90;217.70;;;;;;;;;;5009945;28;20018;-74
2021/04/17 00:13:33;;;;;;;361.95;224.05;;;;;;;;;;5010339;28;20519;-75
2021/04/17 00:15:59;;;;;;;354.70;221.45;;;;;;;;;;5008290;28;20100;-75
2021/04/17 00:18:27;;;;;;;357.80;221.90;;;;;;;;;;4990285;28;20157;-75
2021/04/17 00:20:53;;;;;;;353.50;221.57;;;;;;;;;;5002539;28;20101;-75
2021/04/17 00:23:19;;;;;;;362.90;224.98;;;;;;;;;;4988877;28;20128;-75
2021/04/17 00:25:45;;;;;;;355.42;222.00;;;;;;;;;;4992892;28;20068;-75
2021/04/17 00:28:11;;;;;;;362.73;233.25;;;;;;;;;;5007362;28;20033;-75
2021/04/17 00:30:37;;;;;;;355.23;223.20;;;;;;;;;;5007991;28;20072;-75
2021/04/17 00:33:03;;;;;;;356.33;225.50;;;;;;;;;;5005579;28;20049;-75
2021/04/17 00:35:29;;;;;;;357.75;224.18;;;;;;;;;;5006655;28;20033;-75
2021/04/17 00:37:55;;;;;;;356.25;218.55;;;;;;;;;;4992907;28;20026;-75
2021/04/17 00:40:21;;;;;;;353.20;215.05;;;;;;;;;;5006565;28;20036;-75
2021/04/17 00:42:47;;;;;;;359.88;220.57;;;;;;;;;;4991863;28;20050;-75
2021/04/17 00:45:13;;;;;;;356.13;222.07;;;;;;;;;;4988760;28;20033;-75
2021/04/17 00:47:41;;;;;;;348.83;215.10;;;;;;;;;;4977998;28;20023;-75
2021/04/17 00:50:07;;;;;;;353.90;224.40;;;;;;;;;;5003241;28;20026;-75
2021/04/17 00:52:33;;;;;;;350.80;216.18;;;;;;;;;;4982740;28;20026;-75
2021/04/17 00:54:59;;;;;;;350.88;217.80;;;;;;;;;;4984846;28;20091;-75
2021/04/17 00:57:25;;;;;;;352.02;218.88;;;;;;;;;;4988443;28;20031;-75
2021/04/17 00:59:51;;;;;;;350.15;216.30;;;;;;;;;;5006379;28;20032;-75
2021/04/17 01:02:20;;;;;;;355.95;223.00;;;;;;;;;;4987709;28;20038;-75
2021/04/17 01:04:48;;;;;;;355.63;224.88;;;;;;;;;;5005305;28;20033;-75
2021/04/17 01:07:14;;;;;;;358.25;221.55;;;;;;;;;;4990403;28;20057;-74
2021/04/17 01:09:44;;;;;;;353.70;222.32;;;;;;;;;;5001030;28;20026;-75
2021/04/17 01:12:12;;;;;;;355.15;220.13;;;;;;;;;;5002062;28;20053;-75
2021/04/17 01:14:38;;;;;;;352.13;216.23;;;;;;;;;;4990716;28;20702;-75
2021/04/17 01:17:06;;;;;;;356.33;218.23;;;;;;;;;;4992477;28;20152;-75
2021/04/17 01:19:47;;;;;;;356.75;218.02;;;;;;;;;;4981166;28;20475;-75
2021/04/17 01:22:14;;;;;;;348.77;215.50;;;;;;;;;;4994692;28;20710;-75
2021/04/17 01:24:44;;;;;;;358.15;223.07;;;;;;;;;;4991337;28;20050;-76
2021/04/17 01:27:11;;;;;;;356.08;220.82;;;;;;;;;;4996468;28;20056;-75
2021/04/17 01:29:38;;;;;;;350.80;219.10;;;;;;;;;;5000826;28;20419;-75
2021/04/17 01:32:05;;;;;;;351.58;215.60;;;;;;;;;;4991706;28;20029;-75
2021/04/17 01:34:32;;;;;;;353.95;218.23;;;;;;;;;;4986207;28;20030;-75
2021/04/17 01:36:59;;;;;;;349.02;215.48;;;;;;;;;;5001479;28;20549;-75
2021/04/17 01:39:26;;;;;;;355.67;218.45;;;;;;;;;;5004809;28;20386;-75
2021/04/17 01:41:54;;;;;;;353.58;217.68;;;;;;;;;;4989246;28;20088;-75
2021/04/17 01:44:21;;;;;;;358.15;223.60;;;;;;;;;;4982622;28;20022;-75
2021/04/17 01:46:52;;;;;;;354.98;224.05;;;;;;;;;;4983646;28;20032;-75
2021/04/17 01:49:20;;;;;;;361.13;216.23;;;;;;;;;;5003289;28;20029;-74
2021/04/17 01:51:48;;;;;;;354.40;221.25;;;;;;;;;;4990744;28;20026;-75
2021/04/17 01:54:43;;;;;;;363.02;226.82;;;;;;;;;;4989560;28;20019;-75
2021/04/17 01:57:10;;;;;;;352.58;211.38;;;;;;;;;;4990522;28;20030;-75
2021/04/17 01:59:37;;;;;;;353.88;220.82;;;;;;;;;;4980217;28;20031;-75
2021/04/17 02:02:04;;;;;;;349.92;215.43;;;;;;;;;;4989619;28;20402;-74
2021/04/17 02:04:30;;;;;;;355.88;215.23;;;;;;;;;;4990230;28;20039;-75
2021/04/17 02:06:56;;;;;;;345.08;210.90;;;;;;;;;;4992574;28;20026;-75
2021/04/17 02:09:22;;;;;;;351.17;217.27;;;;;;;;;;4988930;28;20038;-74
2021/04/17 02:11:48;;;;;;;359.15;224.73;;;;;;;;;;4992481;28;20034;-75
2021/04/17 02:14:14;;;;;;;355.90;216.30;;;;;;;;;;5003032;28;20401;-75
2021/04/17 02:16:44;;;;;;;359.05;221.73;;;;;;;;;;5002911;28;20022;-75
2021/04/17 02:19:14;;;;;;;357.15;224.23;;;;;;;;;;5005365;28;20481;-75
2021/04/17 02:21:44;;;;;;;357.35;223.48;;;;;;;;;;4991069;28;20022;-75
2021/04/17 02:24:10;;;;;;;345.75;211.88;;;;;;;;;;4981720;28;20036;-75
2021/04/17 02:26:37;;;;;;;352.88;219.90;;;;;;;;;;4984031;28;20447;-75
2021/04/17 02:29:04;;;;;;;352.75;217.30;;;;;;;;;;4989502;28;20027;-74
2021/04/17 02:31:30;;;;;;;352.70;219.93;;;;;;;;;;5003318;28;20018;-75
2021/04/17 02:33:57;;;;;;;359.80;222.10;;;;;;;;;;5005427;28;20034;-74
2021/04/17 02:36:23;;;;;;;350.55;214.30;;;;;;;;;;5001093;28;20037;-75
2021/04/17 02:38:50;;;;;;;352.52;222.52;;;;;;;;;;4991192;28;20036;-75
2021/04/17 02:41:16;;;;;;;353.30;216.48;;;;;;;;;;4986773;28;20076;-75
2021/04/17 02:43:42;;;;;;;348.98;213.02;;;;;;;;;;4986496;28;20037;-76
2021/04/17 02:46:08;;;;;;;357.40;222.02;;;;;;;;;;4998326;28;20058;-75
2021/04/17 02:48:34;;;;;;;351.30;215.80;;;;;;;;;;4979921;28;20023;-76
2021/04/17 02:51:00;;;;;;;352.65;216.55;;;;;;;;;;4987992;28;20434;-75
2021/04/17 02:53:26;;;;;;;355.10;220.77;;;;;;;;;;4993225;28;20030;-75
2021/04/17 02:55:52;;;;;;;353.40;224.23;;;;;;;;;;5005424;28;20041;-75
2021/04/17 02:58:18;;;;;;;355.55;219.73;;;;;;;;;;5004157;28;20030;-75
2021/04/17 03:00:44;;;;;;;356.50;216.52;;;;;;;;;;5004911;28;20045;-76
2021/04/17 03:03:10;;;;;;;355.33;225.23;;;;;;;;;;4980698;28;20034;-75
2021/04/17 03:05:38;;;;;;;347.52;215.27;;;;;;;;;;4993201;28;20497;-76
2021/04/17 03:08:04;;;;;;;353.88;219.65;;;;;;;;;;4994879;28;20025;-75
2021/04/17 03:10:30;;;;;;;350.42;212.10;;;;;;;;;;4989713;28;20022;-75
2021/04/17 03:12:56;;;;;;;354.60;217.27;;;;;;;;;;5010628;28;20030;-76
2021/04/17 03:15:22;;;;;;;352.75;216.63;;;;;;;;;;5003867;28;20042;-75
2021/04/17 03:17:48;;;;;;;348.70;211.80;;;;;;;;;;5006792;28;20029;-76
2021/04/17 03:20:14;;;;;;;345.67;212.30;;;;;;;;;;4986642;28;20494;-76
2021/04/17 03:22:40;;;;;;;348.42;208.07;;;;;;;;;;4986348;28;20130;-76
2021/04/17 03:25:08;;;;;;;349.17;206.50;;;;;;;;;;5009450;28;20034;-76
2021/04/17 03:27:34;;;;;;;345.58;209.13;;;;;;;;;;5005192;28;20041;-75
2021/04/17 03:30:00;;;;;;;360.17;217.82;;;;;;;;;;5004562;28;20030;-76
2021/04/17 03:32:27;;;;;;;347.00;210.25;;;;;;;;;;4989220;28;20022;-76
2021/04/17 03:34:52;;;;;;;350.02;213.35;;;;;;;;;;5000826;28;20064;-76
2021/04/17 03:37:25;;;;;;;345.40;208.23;;;;;;;;;;4992142;28;20058;-76
2021/04/17 03:39:51;;;;;;;342.98;203.70;;;;;;;;;;4997900;28;20056;-76
2021/04/17 03:42:17;;;;;;;356.10;213.27;;;;;;;;;;5006066;28;20069;-75
2021/04/17 03:44:43;;;;;;;352.13;213.77;;;;;;;;;;4989453;28;20038;-76
2021/04/17 03:47:08;;;;;;;349.73;205.45;;;;;;;;;;4986927;28;20557;-76
2021/04/17 03:49:36;;;;;;;349.23;214.18;;;;;;;;;;4993129;28;20023;-76
2021/04/17 03:52:02;;;;;;;347.50;211.15;;;;;;;;;;4993316;28;20034;-77
2021/04/17 03:54:28;;;;;;;344.80;208.80;;;;;;;;;;5001468;28;20101;-76
2021/04/17 03:56:54;;;;;;;346.27;208.52;;;;;;;;;;4992636;28;20030;-76
2021/04/17 03:59:20;;;;;;;357.83;220.13;;;;;;;;;;4993532;28;20088;-76
2021/04/17 04:02:01;;;;;;;351.42;211.07;;;;;;;;;;5002465;28;20410;-76
2021/04/17 04:04:27;;;;;;;352.88;209.77;;;;;;;;;;4987330;28;20529;-76
2021/04/17 04:06:53;;;;;;;349.13;209.40;;;;;;;;;;4989296;28;20118;-76
2021/04/17 04:09:19;;;;;;;353.20;214.00;;;;;;;;;;5003358;28;20026;-76
2021/04/17 04:11:45;;;;;;;349.08;210.95;;;;;;;;;;4984910;28;20026;-76
2021/04/17 04:14:11;;;;;;;346.10;205.40;;;;;;;;;;4996995;28;20050;-76
2021/04/17 04:16:37;;;;;;;357.63;213.65;;;;;;;;;;4994973;28;20077;-77
2021/04/17 04:19:03;;;;;;;351.05;213.30;;;;;;;;;;5005188;28;20093;-76
2021/04/17 04:21:29;;;;;;;349.88;208.90;;;;;;;;;;4998902;28;20070;-76
2021/04/17 04:23:55;;;;;;;348.70;211.68;;;;;;;;;;4994816;28;20613;-76
2021/04/17 04:26:21;;;;;;;347.75;204.88;;;;;;;;;;5005263;28;20022;-77
2021/04/17 04:28:47;;;;;;;341.67;206.68;;;;;;;;;;4980121;28;20026;-76
2021/04/17 04:31:13;;;;;;;343.25;208.15;;;;;;;;;;4987842;28;20034;-76
2021/04/17 04:33:39;;;;;;;340.58;200.40;;;;;;;;;;4979020;28;20037;-76
2021/04/17 04:36:05;;;;;;;342.60;206.07;;;;;;;;;;4984246;28;20058;-76
2021/04/17 04:38:31;;;;;;;344.05;202.23;;;;;;;;;;4992171;28;20030;-77
2021/04/17 04:40:58;;;;;;;344.40;211.65;;;;;;;;;;5009103;28;20044;-76
2021/04/17 04:43:24;;;;;;;354.25;212.23;;;;;;;;;;4964635;28;20054;-76
2021/04/17 04:45:50;;;;;;;337.63;195.82;;;;;;;;;;4963673;28;20026;-76
2021/04/17 04:48:16;;;;;;;349.27;205.43;;;;;;;;;;4985661;28;20402;-76
2021/04/17 04:50:42;;;;;;;347.85;209.05;;;;;;;;;;4972070;28;20429;-77
2021/04/17 04:53:08;;;;;;;346.02;212.77;;;;;;;;;;4985070;28;20033;-77
2021/04/17 04:55:34;;;;;;;343.88;208.00;;;;;;;;;;4973514;28;20022;-76
2021/04/17 04:58:01;;;;;;;353.92;210.13;;;;;;;;;;4990556;28;20089;-76
2021/04/17 05:00:27;;;;;;;349.05;210.88;;;;;;;;;;4966943;28;20038;-76
2021/04/17 05:02:53;;;;;;;348.33;207.52;;;;;;;;;;4981816;28;20507;-77
2021/04/17 05:05:19;;;;;;;339.73;201.77;;;;;;;;;;4957843;28;20077;-76
2021/04/17 05:07:45;;;;;;;354.35;225.38;;;;;;;;;;4973936;28;20372;-76
2021/04/17 05:10:11;;;;;;;341.92;203.02;;;;;;;;;;4967873;28;20031;-76
2021/04/17 05:12:37;;;;;;;341.88;198.00;;;;;;;;;;4987808;28;20039;-77
2021/04/17 05:15:04;;;;;;;347.52;211.80;;;;;;;;;;4991061;28;20106;-77
2021/04/17 05:17:30;;;;;;;342.02;202.52;;;;;;;;;;4985789;28;20035;-77
2021/04/17 05:19:56;;;;;;;340.10;207.18;;;;;;;;;;4972388;28;20120;-77
2021/04/17 05:22:29;;;;;;;344.80;208.07;;;;;;;;;;4986389;28;20039;-77
2021/04/17 05:24:55;;;;;;;343.58;201.77;;;;;;;;;;4974539;28;20035;-76
2021/04/17 05:27:21;;;;;;;345.58;204.23;;;;;;;;;;4974240;28;20022;-77
2021/04/17 05:29:47;;;;;;;356.63;226.80;;;;;;;;;;4973771;28;20105;-76
2021/04/17 05:32:13;;;;;;;348.83;219.15;;;;;;;;;;4974419;28;20126;-77
2021/04/17 05:34:40;;;;;;;363.92;222.40;;;;;;;;;;4962475;28;20490;-76
2021/04/17 05:37:06;;;;;;;357.85;215.02;;;;;;;;;;4980522;28;20061;-77
2021/04/17 05:39:32;;;;;;;349.27;211.80;;;;;;;;;;4967881;28;20038;-76
2021/04/17 05:41:58;;;;;;;345.98;206.38;;;;;;;;;;4995499;28;20061;-76
2021/04/17 05:44:24;;;;;;;349.77;210.95;;;;;;;;;;5004609;28;20029;-76
2021/04/17 05:46:50;;;;;;;347.50;215.20;;;;;;;;;;4990943;28;20026;-76
2021/04/17 05:49:16;;;;;;;345.67;208.80;;;;;;;;;;5004739;28;20108;-76
2021/04/17 05:51:42;;;;;;;346.60;212.48;;;;;;;;;;5000724;28;20050;-76
2021/04/17 05:54:10;;;;;;;348.65;209.48;;;;;;;;;;5009651;28;20041;-75
2021/04/17 05:56:36;;;;;;;349.77;212.75;;;;;;;;;;4994511;28;20060;-76
2021/04/17 05:59:03;;;;;;;346.38;222.70;;;;;;;;;;4992675;28;20030;-75
2021/04/17 06:01:29;;;;;;;342.75;214.73;;;;;;;;;;4993510;28;20038;-75
2021/04/17 06:03:54;;;;;;;344.77;215.02;;;;;;;;;;5009573;28;20030;-75
2021/04/17 06:06:21;;;;;;;349.67;211.73;;;;;;;;;;5006390;28;20030;-75
2021/04/17 06:08:46;;;;;;;348.83;216.73;;;;;;;;;;5011065;28;20652;-75
2021/04/17 06:11:13;;;;;;;348.13;218.85;;;;;;;;;;5011695;28;20081;-75
2021/04/17 06:13:38;;;;;;;348.90;220.70;;;;;;;;;;5011325;28;20030;-75
2021/04/17 06:16:05;;;;;;;348.35;212.82;;;;;;;;;;4994006;28;20355;-75
2021/04/17 06:18:35;;;;;;;346.35;219.25;;;;;;;;;;4992917;28;20034;-75
2021/04/17 06:21:01;;;;;;;350.30;221.73;;;;;;;;;;4993704;28;20022;-76
2021/04/17 06:23:27;;;;;;;347.30;217.05;;;;;;;;;;5011807;28;20084;-75
2021/04/17 06:25:54;;;;;;;349.92;223.50;;;;;;;;;;4988415;28;20029;-76
2021/04/17 06:28:20;;;;;;;346.65;213.20;;;;;;;;;;5007130;28;20375;-75
2021/04/17 06:30:46;;;;;;;365.40;230.65;;;;;;;;;;5001560;28;20029;-76
2021/04/17 06:33:11;;;;;;;348.70;214.95;;;;;;;;;;4987439;28;20026;-76
2021/04/17 06:35:38;;;;;;;349.85;218.82;;;;;;;;;;5011805;28;20042;-75
2021/04/17 06:38:04;;;;;;;358.95;227.88;;;;;;;;;;5009617;28;20018;-74
2021/04/17 06:40:30;;;;;;;350.45;218.82;;;;;;;;;;5010495;28;20350;-75
2021/04/17 06:42:59;;;;;;;353.23;225.43;;;;;;;;;;5006012;28;20066;-75
2021/04/17 06:45:25;;;;;;;355.90;225.73;;;;;;;;;;4998224;28;20052;-75
2021/04/17 06:47:51;;;;;;;353.17;223.43;;;;;;;;;;5008247;28;20021;-75
2021/04/17 06:50:18;;;;;;;356.73;223.85;;;;;;;;;;5012032;28;20093;-75
2021/04/17 06:52:45;;;;;;;355.98;229.02;;;;;;;;;;5009033;28;20022;-75
2021/04/17 06:55:11;;;;;;;356.38;233.30;;;;;;;;;;5009697;28;20026;-74
2021/04/17 06:57:39;;;;;;;362.77;228.73;;;;;;;;;;4991930;28;20033;-74
2021/04/17 07:00:09;;;;;;;363.08;236.57;;;;;;;;;;5010153;28;20031;-75
2021/04/17 07:02:35;;;;;;;364.50;235.85;;;;;;;;;;4990710;28;20014;-75
2021/04/17 07:05:01;;;;;;;356.67;226.82;;;;;;;;;;4995392;28;20133;-74
2021/04/17 07:07:31;;;;;;;356.88;232.40;;;;;;;;;;4996855;28;20028;-74
2021/04/17 07:09:57;;;;;;;368.27;237.00;;;;;;;;;;5010963;28;20025;-73
2021/04/17 07:12:23;;;;;;;364.10;239.48;;;;;;;;;;5014328;28;20026;-75
2021/04/17 07:14:50;;;;;;;361.88;235.60;;;;;;;;;;4984817;28;20057;-74
2021/04/17 07:17:16;;;;;;;364.17;238.48;;;;;;;;;;5002947;28;20618;-74
2021/04/17 07:19:46;;;;;;;364.98;239.07;;;;;;;;;;5000585;28;20461;-75
2021/04/17 07:22:19;;;;;;;363.40;241.73;;;;;;;;;;4980777;28;20113;-74
2021/04/17 07:24:46;;;;;;;365.05;240.30;;;;;;;;;;5012092;28;20032;-74
2021/04/17 07:27:31;;;;;;;369.05;247.50;;;;;;;;;;4979616;28;20378;-73
2021/04/17 07:30:01;;;;;;;372.85;244.65;;;;;;;;;;4979540;28;20450;-74
2021/04/17 07:32:27;;;;;;;376.53;252.83;;;;;;;;;;4992043;28;20022;-74
2021/04/17 07:35:28;;;;;;;373.45;256.88;;;;;;;;;;4989015;28;20385;-75
2021/04/17 07:38:11;;;;;;;374.20;261.92;;;;;;;;;;4926971;29;20055;-74
2021/04/17 07:40:37;;;;;;;378.00;265.35;;;;;;;;;;4999701;28;20042;-74
2021/04/17 07:43:03;;;;;;;380.38;272.95;;;;;;;;;;4980387;28;20042;-76
2021/04/17 07:45:30;;;;;;;380.63;275.15;;;;;;;;;;4986427;28;20038;-74
2021/04/17 07:47:59;;;;;;;380.63;276.52;;;;;;;;;;4977747;28;20073;-74
2021/04/17 07:50:35;;;;;;;381.73;280.85;;;;;;;;;;5007763;28;20409;-74
2021/04/17 07:53:22;;;;;;;383.52;281.52;;;;;;;;;;4994727;28;20109;-78
2021/04/17 07:55:48;;;;;;;382.85;280.10;;;;;;;;;;5005743;28;20058;-77
2021/04/17 07:58:14;;;;;;;377.85;284.45;;;;;;;;;;4977533;28;20710;-75
2021/04/17 08:00:41;;;;;;;380.15;283.42;;;;;;;;;;4994556;28;20112;-75
2021/04/17 08:03:07;;;;;;;377.55;280.02;;;;;;;;;;5012006;28;20030;-76
2021/04/17 08:05:34;;;;;;;382.10;289.67;;;;;;;;;;5011714;28;20113;-81
2021/04/17 08:08:00;;;;;;;383.92;292.40;;;;;;;;;;4977141;28;20092;-78
2021/04/17 08:10:27;;;;;;;388.38;295.67;;;;;;;;;;4993941;28;20025;-77
2021/04/17 08:12:57;;;;;;;384.33;297.63;;;;;;;;;;4996857;28;20104;-76
2021/04/17 08:15:23;;;;;;;388.00;305.40;;;;;;;;;;5014143;28;20026;-77
2021/04/17 08:18:04;;;;;;;392.80;307.88;;;;;;;;;;5014329;28;20030;-78
2021/04/17 08:20:31;;;;;;;388.80;310.90;;;;;;;;;;5013907;28;20030;-77
2021/04/17 08:22:58;;;;;;;392.65;317.10;;;;;;;;;;4996275;28;20041;-77
2021/04/17 08:25:24;;;;;;;399.92;328.20;;;;;;;;;;5013935;28;20489;-78
2021/04/17 08:27:51;;;;;;;394.98;324.23;;;;;;;;;;4996526;28;20105;-76
2021/04/17 08:30:24;;;;;;;400.95;337.92;;;;;;;;;;4996239;28;20018;-75
2021/04/17 08:32:50;;;;;;;402.23;345.33;;;;;;;;;;4975361;28;20026;-77
2021/04/17 08:35:18;;;;;;;397.55;342.63;;;;;;;;;;4992055;28;20497;-77
2021/04/17 08:37:56;;;;;;;396.38;346.40;;;;;;;;;;4996318;28;20049;-77
2021/04/17 08:40:38;;;;;;;402.65;356.30;;;;;;;;;;4979435;28;20038;-77
2021/04/17 08:43:04;;;;;;;401.77;356.98;;;;;;;;;;4994002;28;20077;-76
2021/04/17 08:45:31;;;;;;;403.35;358.92;;;;;;;;;;4989855;28;20026;-77
2021/04/17 08:47:58;;;;;;;405.92;361.48;;;;;;;;;;4977174;28;20085;-78
2021/04/17 08:50:26;;;;;;;396.55;349.20;;;;;;;;;;4994403;28;20030;-76
2021/04/17 08:52:55;;;;;;;398.58;352.27;;;;;;;;;;4993966;28;20556;-77
2021/04/17 08:55:21;;;;;;;399.23;352.88;;;;;;;;;;4976875;28;20125;-76
2021/04/17 08:58:07;;;;;;;401.75;357.25;;;;;;;;;;4994822;28;20054;-76
2021/04/17 09:00:33;;;;;;;392.95;349.17;;;;;;;;;;5012997;28;20021;-79
2021/04/17 09:02:59;;;;;;;403.58;359.08;;;;;;;;;;5005184;28;20034;-75
2021/04/17 09:05:42;;;;;;;405.45;361.40;;;;;;;;;;4993035;28;20489;-77
2021/04/17 09:08:13;;;;;;;413.08;368.00;;;;;;;;;;5006610;28;20088;-75
2021/04/17 09:10:39;;;;;;;420.35;375.60;;;;;;;;;;4977108;28;20065;-76
2021/04/17 09:13:13;;;;;;;422.33;377.58;;;;;;;;;;4993659;28;20076;-75
2021/04/17 09:15:58;;;;;;;423.40;378.35;;;;;;;;;;4989198;28;20026;-76
2021/04/17 09:18:37;;;;;;;420.48;376.13;;;;;;;;;;4992197;28;20026;-76
2021/04/17 09:21:11;;;;;;;420.60;376.02;;;;;;;;;;4993183;28;20026;-77
2021/04/17 09:23:43;;;;;;;417.30;372.92;;;;;;;;;;4992397;28;20546;-77
2021/04/17 09:26:24;;;;;;;424.60;379.85;;;;;;;;;;4992127;28;20026;-76
2021/04/17 09:28:50;;;;;;;428.55;384.13;;;;;;;;;;4993664;28;20064;-77
2021/04/17 09:31:18;;;;;;;424.80;380.25;;;;;;;;;;4978557;28;20026;-75
2021/04/17 09:33:44;;;;;;;422.70;378.17;;;;;;;;;;5006527;28;20105;-75
2021/04/17 09:36:20;;;;;;;420.85;376.33;;;;;;;;;;4994328;28;20060;-75
2021/04/17 09:38:46;;;;;;;421.80;377.17;;;;;;;;;;4995193;28;20026;-77
2021/04/17 09:41:12;;;;;;;425.23;380.42;;;;;;;;;;5012635;28;20038;-76
2021/04/17 09:43:38;;;;;;;419.10;374.90;;;;;;;;;;4995101;28;20121;-76
2021/04/17 09:46:08;;;;;;;423.63;379.10;;;;;;;;;;4993607;28;20064;-79
2021/04/17 09:48:40;;;;;;;426.83;382.35;;;;;;;;;;4985764;28;20034;-76
2021/04/17 09:51:28;;;;;;;427.27;382.73;;;;;;;;;;4993743;28;20165;-76
2021/04/17 09:53:59;;;;;;;443.67;397.85;;;;;;;;;;4983558;28;20030;-75
2021/04/17 09:56:27;;;;;;;447.48;402.15;;;;;;;;;;5009052;28;20025;-75
2021/04/17 09:58:53;;;;;;;457.10;411.85;;;;;;;;;;4990862;28;20088;-73
2021/04/17 10:01:19;;;;;;;449.13;404.08;;;;;;;;;;5011761;28;20030;-75
2021/04/17 10:04:00;;;;;;;439.15;394.80;;;;;;;;;;5009546;28;20088;-75
2021/04/17 10:06:37;;;;;;;429.55;385.48;;;;;;;;;;5009073;28;20088;-76
2021/04/17 10:09:16;;;;;;;428.75;384.48;;;;;;;;;;4984829;28;20026;-75
2021/04/17 10:11:51;;;;;;;440.73;396.08;;;;;;;;;;5010862;28;20698;-75
2021/04/17 10:14:18;;;;;;;432.95;388.70;;;;;;;;;;4993275;28;20403;-75
2021/04/17 10:16:48;;;;;;;419.88;376.23;;;;;;;;;;4993602;28;20358;-74
2021/04/17 10:19:15;;;;;;;409.98;365.88;;;;;;;;;;4994627;28;20445;-74
2021/04/17 10:21:41;;;;;;;408.13;363.65;;;;;;;;;;4997097;28;20056;-74
2021/04/17 10:24:15;;;;;;;413.80;369.55;;;;;;;;;;4996351;28;20125;-76
2021/04/17 10:26:51;;;;;;;422.20;378.05;;;;;;;;;;5010352;28;20104;-76
2021/04/17 10:29:17;;;;;;;415.98;372.35;;;;;;;;;;4982278;28;20050;-76
2021/04/17 10:31:44;;;;;;;400.55;357.42;;;;;;;;;;4992950;28;20489;-76
2021/04/17 10:34:11;;;;;;;394.77;351.15;;;;;;;;;;4994546;28;20521;-76
2021/04/17 10:36:37;;;;;;;390.60;341.73;;;;;;;;;;5010081;28;20081;-76
2021/04/17 10:39:07;;;;;;;383.70;338.50;;;;;;;;;;5006876;28;20029;-76
2021/04/17 10:41:35;;;;;;;396.05;352.90;;;;;;;;;;4986001;28;20030;-76
2021/04/17 10:44:15;;;;;;;412.80;369.55;;;;;;;;;;4976756;28;20049;-73
2021/04/17 10:46:41;;;;;;;428.77;384.90;;;;;;;;;;4974678;28;20030;-77
2021/04/17 10:49:07;;;;;;;439.00;395.02;;;;;;;;;;4994707;28;20110;-75
2021/04/17 10:51:37;;;;;;;430.08;387.13;;;;;;;;;;4984122;28;20034;-76
2021/04/17 10:54:03;;;;;;;429.83;386.42;;;;;;;;;;4995450;28;20026;-73
2021/04/17 10:56:31;;;;;;;437.45;393.88;;;;;;;;;;4970596;28;20038;-77
2021/04/17 10:59:01;;;;;;;463.17;418.67;;;;;;;;;;4971866;28;20026;-77
2021/04/17 11:01:27;;;;;;;;;;;;;;;;;;4975291;28;20065;-78
2021/04/17 11:03:59;;;;;;;468.17;424.23;;;;;;;;;;4975865;28;19909;-74
2021/04/17 11:06:27;;;;;;;451.98;408.05;;;;;;;;;;4992535;28;20461;-75
2021/04/17 11:09:13;;;;;;;438.48;395.13;;;;;;;;;;4984803;28;20031;-76
2021/04/17 11:11:50;;;;;;;438.02;394.45;;;;;;;;;;4962852;28;20081;-77
2021/04/17 11:14:20;;;;;;;438.20;394.10;;;;;;;;;;4968545;28;20027;-76
2021/04/17 11:16:46;;;;;;;435.55;392.00;;;;;;;;;;4963392;28;20022;-77
2021/04/17 11:19:31;;;;;;;441.80;398.08;;;;;;;;;;4994752;28;20032;-76
2021/04/17 11:22:12;;;;;;;429.75;386.40;;;;;;;;;;4966587;28;20652;-74
2021/04/17 11:24:39;;;;;;;434.17;390.45;;;;;;;;;;4986982;28;20042;-75
2021/04/17 11:27:05;;;;;;;445.85;401.55;;;;;;;;;;4973613;28;20027;-75
2021/04/17 11:29:46;;;;;;;446.77;403.25;;;;;;;;;;4987786;28;20062;-75
2021/04/17 11:32:12;;;;;;;444.67;400.95;;;;;;;;;;4989070;28;20027;-75
2021/04/17 11:34:42;;;;;;;437.52;393.95;;;;;;;;;;4974410;28;20029;-75
2021/04/17 11:37:08;;;;;;;433.75;389.90;;;;;;;;;;4989629;28;20305;-75
2021/04/17 11:39:34;;;;;;;437.50;393.48;;;;;;;;;;4995354;28;20041;-75
2021/04/17 11:42:00;;;;;;;451.08;406.55;;;;;;;;;;4975120;28;20042;-75
2021/04/17 11:44:26;;;;;;;460.70;416.25;;;;;;;;;;4977612;28;20026;-76
2021/04/17 11:46:52;;;;;;;443.92;400.23;;;;;;;;;;4989320;28;20018;-74
2021/04/17 11:49:18;;;;;;;440.63;396.70;;;;;;;;;;4994382;28;20042;-75
2021/04/17 11:51:44;;;;;;;426.67;383.08;;;;;;;;;;4975670;28;20061;-75
2021/04/17 11:54:10;;;;;;;430.58;386.75;;;;;;;;;;4972202;28;20478;-75
2021/04/17 11:56:36;;;;;;;437.38;393.55;;;;;;;;;;4991668;28;20039;-75
2021/04/17 11:59:02;;;;;;;445.98;401.95;;;;;;;;;;4968000;28;20035;-75
2021/04/17 12:01:28;;;;;;;457.00;412.48;;;;;;;;;;4963544;28;20039;-75
2021/04/17 12:03:54;;;;;;;454.30;410.73;;;;;;;;;;4983386;28;20501;-75
2021/04/17 12:06:29;;;;;;;452.42;408.67;;;;;;;;;;4990450;28;20041;-75
2021/04/17 12:08:55;;;;;;;436.23;392.50;;;;;;;;;;4978970;28;20088;-75
2021/04/17 12:11:21;;;;;;;421.27;377.90;;;;;;;;;;4979790;28;20031;-76
2021/04/17 12:13:47;;;;;;;411.30;368.38;;;;;;;;;;4969409;28;20033;-75
2021/04/17 12:16:13;;;;;;;408.08;364.88;;;;;;;;;;4990014;28;20367;-73
2021/04/17 12:18:39;;;;;;;414.83;370.88;;;;;;;;;;4973150;28;20029;-75
2021/04/17 12:21:06;;;;;;;409.08;365.88;;;;;;;;;;4973661;28;20078;-75
2021/04/17 12:23:32;;;;;;;407.00;363.75;;;;;;;;;;4975609;28;20054;-74
2021/04/17 12:25:58;;;;;;;393.52;350.38;;;;;;;;;;4992345;28;20030;-73
2021/04/17 12:28:25;;;;;;;400.55;356.90;;;;;;;;;;4993105;28;20363;-75
2021/04/17 12:30:55;;;;;;;404.45;360.95;;;;;;;;;;4992531;28;20026;-75
2021/04/17 12:33:21;;;;;;;412.50;368.80;;;;;;;;;;4991491;28;20359;-75
2021/04/17 12:35:48;;;;;;;417.15;373.13;;;;;;;;;;4972001;28;20482;-75
2021/04/17 12:38:19;;;;;;;427.20;382.83;;;;;;;;;;4992534;28;20022;-76
2021/04/17 12:40:45;;;;;;;432.27;388.15;;;;;;;;;;4983267;28;20026;-76
2021/04/17 12:43:15;;;;;;;432.00;387.90;;;;;;;;;;4995524;28;20104;-75
2021/04/17 12:45:41;;;;;;;422.85;377.60;;;;;;;;;;4977551;28;20459;-74
2021/04/17 12:48:10;;;;;;;414.67;371.02;;;;;;;;;;5013471;28;20044;-76
2021/04/17 12:50:36;;;;;;;403.63;360.08;;;;;;;;;;4970266;28;20383;-77
2021/04/17 12:53:03;;;;;;;400.08;356.67;;;;;;;;;;4965824;28;20058;-76
2021/04/17 12:55:29;;;;;;;397.70;354.20;;;;;;;;;;4982947;28;20118;-74
2021/04/17 12:57:55;;;;;;;394.90;349.33;;;;;;;;;;4993629;28;20034;-73
2021/04/17 13:00:21;;;;;;;396.02;346.52;;;;;;;;;;4968177;28;20034;-76
2021/04/17 13:02:47;;;;;;;390.52;347.42;;;;;;;;;;4956052;28;20022;-77
2021/04/17 13:05:13;;;;;;;389.00;343.20;;;;;;;;;;4976284;28;20030;-76
2021/04/17 13:07:39;;;;;;;386.42;337.70;;;;;;;;;;4992994;28;20022;-74
2021/04/17 13:10:06;;;;;;;390.88;337.42;;;;;;;;;;4981280;28;20014;-75
2021/04/17 13:12:32;;;;;;;388.42;332.60;;;;;;;;;;4977597;28;20026;-76
2021/04/17 13:14:58;;;;;;;388.02;331.33;;;;;;;;;;4971684;28;20089;-75
2021/04/17 13:17:23;;;;;;;388.95;330.83;;;;;;;;;;4993414;28;20065;-76
2021/04/17 13:19:49;;;;;;;388.52;328.63;;;;;;;;;;4979336;28;20023;-75
2021/04/17 13:22:16;;;;;;;389.48;328.25;;;;;;;;;;4993354;28;20026;-75
2021/04/17 13:24:42;;;;;;;396.77;331.88;;;;;;;;;;4977290;28;20038;-76
2021/04/17 13:27:08;;;;;;;389.98;331.10;;;;;;;;;;4961372;28;20038;-76
2021/04/17 13:29:34;;;;;;;386.38;329.92;;;;;;;;;;4970471;28;20459;-75
2021/04/17 13:32:01;;;;;;;388.92;337.27;;;;;;;;;;4991906;28;20026;-76
2021/04/17 13:34:29;;;;;;;391.10;341.65;;;;;;;;;;4998257;28;20064;-77
2021/04/17 13:36:55;;;;;;;397.90;354.13;;;;;;;;;;4981820;28;20034;-76
2021/04/17 13:39:23;;;;;;;403.15;359.42;;;;;;;;;;4997002;28;20026;-76
2021/04/17 13:41:49;;;;;;;424.83;380.25;;;;;;;;;;4979106;28;20043;-75
2021/04/17 13:44:15;;;;;;;440.45;395.40;;;;;;;;;;4995628;28;20018;-75
2021/04/17 13:46:53;;;;;;;445.52;400.90;;;;;;;;;;4977886;28;20022;-77
2021/04/17 13:49:19;;;;;;;441.77;397.35;;;;;;;;;;5009759;28;20443;-77
2021/04/17 13:51:45;;;;;;;423.10;379.48;;;;;;;;;;4981368;28;20097;-75
2021/04/17 13:54:11;;;;;;;413.73;369.58;;;;;;;;;;4986624;28;20022;-75
2021/04/17 13:56:37;;;;;;;402.20;358.08;;;;;;;;;;4986205;28;20038;-76
2021/04/17 13:59:03;;;;;;;398.77;353.10;;;;;;;;;;4987338;28;20030;-79